createdAt,value
2017-09-30T00:01:21.573Z,33.93
2017-09-30T00:03:49.884Z,30.93
2017-09-30T00:06:18.210Z,28.77
2017-09-30T00:08:47.284Z,32.60
2017-09-30T00:11:15.613Z,34.53
2017-09-30T00:13:43.923Z,33.60
2017-09-30T00:16:12.361Z,32.13
2017-09-30T00:18:40.667Z,32.83
2017-09-30T00:21:09.005Z,37.90
2017-09-30T00:23:38.082Z,29.27
2017-09-30T00:26:07.169Z,31.97
2017-09-30T00:28:35.490Z,28.53
2017-09-30T00:31:03.828Z,29.70
2017-09-30T00:33:32.141Z,29.00
2017-09-30T00:36:00.641Z,31.30
2017-09-30T00:38:28.980Z,34.80
2017-09-30T00:40:58.066Z,35.97
2017-09-30T00:43:27.170Z,32.37
2017-09-30T00:45:56.264Z,34.53
2017-09-30T00:48:25.360Z,33.50
2017-09-30T00:50:54.445Z,39.13
2017-09-30T00:53:22.790Z,47.90
2017-09-30T00:55:51.113Z,46.33
2017-09-30T00:58:20.207Z,53.37
2017-09-30T01:00:49.301Z,40.93
2017-09-30T01:03:18.385Z,41.63
2017-09-30T01:05:47.493Z,38.00
2017-09-30T01:08:16.574Z,40.30
2017-09-30T01:10:45.682Z,48.20
2017-09-30T01:13:14.781Z,49.23
2017-09-30T01:15:43.903Z,46.40
2017-09-30T01:18:12.218Z,39.17
2017-09-30T01:20:40.528Z,45.53
2017-09-30T01:23:09.625Z,41.13
2017-09-30T01:25:38.701Z,42.10
2017-09-30T01:28:07.027Z,47.27
2017-09-30T01:30:35.338Z,45.00
2017-09-30T01:33:04.431Z,45.37
2017-09-30T01:35:32.741Z,46.77
2017-09-30T01:38:01.869Z,46.57
2017-09-30T01:40:30.202Z,43.40
2017-09-30T01:42:58.525Z,50.07
2017-09-30T01:45:26.848Z,44.00
2017-09-30T01:50:28.644Z,46.93
2017-09-30T01:52:57.724Z,49.90
2017-09-30T01:55:26.060Z,41.27
2017-09-30T01:57:54.372Z,44.87
2017-09-30T02:00:22.690Z,49.47
2017-09-30T02:02:51.766Z,51.37
2017-09-30T02:05:20.110Z,44.23
2017-09-30T02:07:48.424Z,43.40
2017-09-30T02:10:17.516Z,38.83
2017-09-30T02:12:46.610Z,40.87
2017-09-30T02:15:14.945Z,44.13
2017-09-30T02:17:44.049Z,42.47
2017-09-30T02:20:12.361Z,47.00
2017-09-30T02:22:40.761Z,54.80
2017-09-30T02:25:09.071Z,55.33
2017-09-30T02:27:37.432Z,45.70
2017-09-30T02:30:05.738Z,47.50
2017-09-30T02:32:34.048Z,60.03
2017-09-30T02:35:02.386Z,54.70
2017-09-30T02:37:30.701Z,53.60
2017-09-30T02:39:59.048Z,57.93
2017-09-30T02:42:27.375Z,49.27
2017-09-30T02:44:56.478Z,53.17
2017-09-30T02:47:24.786Z,59.17
2017-09-30T02:49:53.127Z,51.17
2017-09-30T02:52:22.213Z,48.80
2017-09-30T02:54:50.550Z,48.33
2017-09-30T02:57:18.882Z,54.07
2017-09-30T02:59:47.235Z,63.60
2017-09-30T03:02:15.559Z,62.27
2017-09-30T03:04:43.876Z,54.30
2017-09-30T03:07:12.218Z,57.00
2017-09-30T03:09:40.531Z,56.17
2017-09-30T03:12:08.862Z,52.97
2017-09-30T03:14:37.181Z,52.00
2017-09-30T03:17:07.018Z,46.60
2017-09-30T03:19:35.330Z,56.03
2017-09-30T03:22:03.651Z,50.37
2017-09-30T03:24:31.978Z,52.27
2017-09-30T03:27:00.338Z,56.57
2017-09-30T03:29:29.427Z,51.57
2017-09-30T03:31:58.507Z,51.70
2017-09-30T03:34:26.830Z,49.17
2017-09-30T03:36:55.146Z,55.80
2017-09-30T03:39:23.479Z,56.07
2017-09-30T03:41:51.806Z,50.57
2017-09-30T03:44:20.133Z,56.43
2017-09-30T03:46:48.472Z,56.40
2017-09-30T03:49:16.793Z,57.93
2017-09-30T03:51:45.110Z,57.50
2017-09-30T03:54:13.447Z,57.67
2017-09-30T03:56:41.786Z,53.63
2017-09-30T03:59:10.104Z,55.97
2017-09-30T04:01:38.434Z,56.27
2017-09-30T04:04:06.745Z,57.10
2017-09-30T04:06:35.841Z,60.07
2017-09-30T04:09:04.933Z,57.20
2017-09-30T04:11:34.030Z,62.70
2017-09-30T04:14:03.123Z,64.00
2017-09-30T04:16:32.206Z,66.07
2017-09-30T04:19:01.282Z,56.97
2017-09-30T04:21:29.634Z,73.17
2017-09-30T04:23:57.959Z,63.90
2017-09-30T04:26:27.082Z,56.23
2017-09-30T04:28:55.410Z,54.20
2017-09-30T04:31:23.729Z,58.33
2017-09-30T04:33:52.070Z,59.20
2017-09-30T04:36:20.386Z,53.30
2017-09-30T04:38:48.746Z,56.80
2017-09-30T04:41:17.842Z,49.53
2017-09-30T04:43:46.943Z,54.60
2017-09-30T04:46:16.033Z,61.50
2017-09-30T04:48:45.127Z,52.37
2017-09-30T04:51:13.429Z,52.03
2017-09-30T04:53:41.773Z,56.73
2017-09-30T04:56:10.100Z,61.63
2017-09-30T04:58:38.409Z,56.20
2017-09-30T05:01:06.736Z,57.43
2017-09-30T05:03:35.062Z,58.33
2017-09-30T05:06:03.393Z,64.73
2017-09-30T05:08:31.723Z,59.07
2017-09-30T05:11:00.042Z,64.43
2017-09-30T05:13:28.373Z,58.80
2017-09-30T05:15:56.732Z,60.87
2017-09-30T05:18:25.041Z,58.80
2017-09-30T05:20:53.358Z,59.80
2017-09-30T05:23:21.681Z,51.27
2017-09-30T05:25:50.002Z,57.70
2017-09-30T05:28:18.334Z,54.63
2017-09-30T05:30:46.670Z,53.00
2017-09-30T05:33:15.010Z,61.77
2017-09-30T05:35:43.336Z,52.43
2017-09-30T05:38:11.661Z,57.50
2017-09-30T05:40:39.979Z,61.37
2017-09-30T05:43:08.342Z,54.73
2017-09-30T05:45:36.674Z,60.63
2017-09-30T05:48:04.990Z,60.23
2017-09-30T05:50:34.085Z,53.87
2017-09-30T05:53:03.174Z,61.10
2017-09-30T05:55:31.490Z,50.87
2017-09-30T05:57:59.805Z,51.07
2017-09-30T06:00:28.130Z,55.80
2017-09-30T06:02:56.460Z,54.70
2017-09-30T06:05:24.785Z,48.13
2017-09-30T06:07:53.114Z,50.90
2017-09-30T06:10:21.527Z,52.57
2017-09-30T06:12:50.630Z,48.67
2017-09-30T06:15:19.746Z,43.07
2017-09-30T06:17:48.064Z,49.37
2017-09-30T06:20:16.382Z,46.10
2017-09-30T06:22:45.470Z,43.70
2017-09-30T06:25:13.855Z,48.83
2017-09-30T06:27:42.929Z,45.10
2017-09-30T06:30:11.245Z,40.07
2017-09-30T06:32:39.562Z,48.50
2017-09-30T06:35:07.874Z,39.30
2017-09-30T06:37:36.960Z,43.90
2017-09-30T06:40:05.270Z,43.37
2017-09-30T06:42:33.590Z,40.97
2017-09-30T06:45:01.899Z,38.27
2017-09-30T06:47:31.008Z,42.50
2017-09-30T06:49:59.327Z,52.17
2017-09-30T06:52:27.641Z,41.93
2017-09-30T06:54:55.967Z,42.73
2017-09-30T06:57:24.286Z,38.40
2017-09-30T06:59:52.654Z,40.80
2017-09-30T07:02:20.974Z,40.03
2017-09-30T07:04:50.062Z,39.13
2017-09-30T07:07:19.174Z,40.53
2017-09-30T07:09:47.509Z,39.20
2017-09-30T07:12:15.820Z,41.83
2017-09-30T07:14:44.154Z,38.30
2017-09-30T07:17:12.481Z,39.80
2017-09-30T07:19:40.790Z,37.60
2017-09-30T07:22:09.108Z,38.47
2017-09-30T07:24:37.426Z,40.93
2017-09-30T07:27:07.273Z,40.03
2017-09-30T07:29:35.577Z,39.00
2017-09-30T07:32:03.930Z,36.23
2017-09-30T07:34:32.254Z,36.47
2017-09-30T07:37:01.324Z,33.60
2017-09-30T07:39:29.658Z,37.03
2017-09-30T07:41:57.978Z,40.07
2017-09-30T07:44:26.300Z,36.50
2017-09-30T07:46:54.613Z,38.87
2017-09-30T07:49:22.965Z,36.03
2017-09-30T07:51:51.302Z,38.83
2017-09-30T07:54:20.410Z,36.20
2017-09-30T07:56:49.477Z,36.80
2017-09-30T07:59:17.801Z,36.80
2017-09-30T08:01:46.126Z,36.10
2017-09-30T08:04:14.430Z,43.90
2017-09-30T08:06:43.515Z,37.73
2017-09-30T08:09:12.630Z,33.03
2017-09-30T08:11:41.718Z,27.57
2017-09-30T08:14:10.810Z,33.63
2017-09-30T08:16:39.921Z,34.27
2017-09-30T08:19:08.231Z,30.63
2017-09-30T08:21:36.549Z,31.70
2017-09-30T08:24:05.640Z,35.27
2017-09-30T08:26:33.965Z,28.00
2017-09-30T08:29:02.310Z,29.70
2017-09-30T08:31:31.384Z,34.33
2017-09-30T08:33:59.705Z,26.70
2017-09-30T08:36:28.015Z,30.33
2017-09-30T08:38:56.358Z,29.87
2017-09-30T08:41:24.671Z,25.53
2017-09-30T08:43:52.996Z,30.20
2017-09-30T08:46:21.423Z,25.60
2017-09-30T08:48:49.800Z,29.10
2017-09-30T08:51:18.167Z,27.10
2017-09-30T08:53:46.579Z,26.60
2017-09-30T08:56:14.942Z,28.83
2017-09-30T08:58:43.315Z,27.03
2017-09-30T09:01:11.674Z,23.93
2017-09-30T09:03:39.995Z,26.00
2017-09-30T09:06:08.389Z,32.50
2017-09-30T09:08:37.506Z,26.80
2017-09-30T09:11:05.884Z,30.97
2017-09-30T09:13:35.275Z,32.20
2017-09-30T09:16:03.622Z,25.77
2017-09-30T09:18:31.968Z,25.23
2017-09-30T09:21:00.302Z,25.00
2017-09-30T09:23:28.666Z,29.93
2017-09-30T09:26:01.474Z,31.13
2017-09-30T09:28:29.830Z,25.60
2017-09-30T09:30:58.160Z,29.63
2017-09-30T09:33:26.485Z,23.47
2017-09-30T09:35:54.810Z,23.30
2017-09-30T09:38:23.140Z,25.10
2017-09-30T09:40:51.513Z,21.30
2017-09-30T09:43:19.850Z,27.53
2017-09-30T09:45:48.331Z,20.60
2017-09-30T09:48:16.771Z,24.10
2017-09-30T09:50:45.926Z,25.20
2017-09-30T09:53:14.246Z,24.03
2017-09-30T09:55:43.329Z,22.10
2017-09-30T09:58:11.658Z,20.80
2017-09-30T10:00:40.032Z,25.40
2017-09-30T10:03:08.342Z,21.80
2017-09-30T10:05:36.680Z,26.53
2017-09-30T10:08:05.001Z,19.87
2017-09-30T10:10:33.322Z,21.73
2017-09-30T10:13:02.409Z,24.33
2017-09-30T10:15:31.490Z,24.60
2017-09-30T10:17:59.819Z,25.73
2017-09-30T10:20:28.128Z,27.97
2017-09-30T10:22:56.479Z,28.23
2017-09-30T10:25:24.798Z,23.57
2017-09-30T10:27:53.102Z,25.53
2017-09-30T10:30:21.432Z,26.33
2017-09-30T10:32:49.767Z,27.37
2017-09-30T10:35:18.099Z,29.27
2017-09-30T10:37:46.431Z,26.70
2017-09-30T10:40:14.751Z,25.10
2017-09-30T10:42:43.080Z,29.33
2017-09-30T10:45:11.492Z,26.83
2017-09-30T10:47:39.817Z,23.00
2017-09-30T10:50:08.926Z,25.37
2017-09-30T10:52:37.271Z,25.90
2017-09-30T10:55:05.581Z,25.10
2017-09-30T10:57:33.908Z,27.17
2017-09-30T11:00:02.228Z,28.13
2017-09-30T11:02:30.564Z,23.40
2017-09-30T11:04:58.903Z,28.63
2017-09-30T11:07:27.221Z,28.90
2017-09-30T11:09:55.542Z,35.63
2017-09-30T11:12:23.890Z,29.37
2017-09-30T11:14:52.197Z,32.77
2017-09-30T11:17:21.282Z,24.40
2017-09-30T11:19:50.385Z,28.97
2017-09-30T11:22:19.468Z,33.20
2017-09-30T11:24:48.545Z,24.03
2017-09-30T11:27:16.860Z,27.03
2017-09-30T11:29:45.178Z,26.13
2017-09-30T11:32:13.503Z,25.30
2017-09-30T11:34:42.623Z,25.97
2017-09-30T11:37:10.932Z,31.20
2017-09-30T11:39:39.249Z,27.37
2017-09-30T11:42:08.345Z,29.37
2017-09-30T11:44:37.426Z,26.47
2017-09-30T11:47:07.251Z,25.87
2017-09-30T11:49:36.341Z,23.57
2017-09-30T11:52:04.662Z,24.67
2017-09-30T11:54:32.969Z,21.50
2017-09-30T11:57:01.298Z,20.87
2017-09-30T11:59:29.611Z,23.37
2017-09-30T12:01:57.957Z,20.53
2017-09-30T12:04:26.271Z,22.40
2017-09-30T12:06:54.729Z,22.13
2017-09-30T12:09:23.050Z,23.40
2017-09-30T12:11:51.373Z,27.03
2017-09-30T12:14:19.698Z,25.20
2017-09-30T12:16:48.007Z,22.27
2017-09-30T12:19:17.089Z,25.33
2017-09-30T12:21:46.173Z,22.70
2017-09-30T12:24:14.521Z,21.87
2017-09-30T12:26:42.836Z,20.10
2017-09-30T12:29:11.145Z,24.43
2017-09-30T12:31:39.474Z,25.17
2017-09-30T12:34:07.782Z,25.00
2017-09-30T12:36:36.866Z,20.90
2017-09-30T12:39:05.179Z,25.73
2017-09-30T12:41:33.505Z,24.60
2017-09-30T12:44:01.847Z,24.40
2017-09-30T12:46:30.220Z,23.97
2017-09-30T12:48:58.530Z,30.50
2017-09-30T12:51:26.840Z,37.37
2017-09-30T12:53:55.946Z,33.87
2017-09-30T12:56:25.029Z,27.23
2017-09-30T12:58:54.113Z,35.50
2017-09-30T13:01:22.429Z,26.80
2017-09-30T13:03:50.755Z,26.07
2017-09-30T13:06:19.077Z,32.70
2017-09-30T13:08:47.442Z,24.10
2017-09-30T13:11:16.671Z,31.73
2017-09-30T13:13:44.982Z,33.00
2017-09-30T13:16:13.306Z,33.10
2017-09-30T13:18:41.606Z,29.17
2017-09-30T13:21:09.927Z,34.20
2017-09-30T13:23:38.254Z,34.47
2017-09-30T13:26:06.578Z,28.23
2017-09-30T13:31:32.650Z,28.27
2017-09-30T13:34:01.718Z,32.73
2017-09-30T13:36:30.030Z,31.50
2017-09-30T13:38:59.111Z,29.77
2017-09-30T13:41:28.196Z,30.50
2017-09-30T13:43:56.555Z,30.63
2017-09-30T13:49:00.174Z,27.77
2017-09-30T13:51:28.526Z,27.97
2017-09-30T13:53:56.838Z,34.23
2017-09-30T13:56:25.141Z,29.97
2017-09-30T13:58:54.233Z,34.30
2017-09-30T14:01:23.301Z,24.63
2017-09-30T14:03:51.910Z,29.27
2017-09-30T14:06:20.976Z,29.73
2017-09-30T14:08:49.305Z,27.93
2017-09-30T14:11:17.617Z,34.03
2017-09-30T14:13:46.834Z,30.33
2017-09-30T14:16:15.141Z,31.80
2017-09-30T14:18:44.257Z,32.53
2017-09-30T14:21:12.581Z,73.83
2017-09-30T14:23:40.922Z,115.60
2017-09-30T14:26:09.597Z,103.03
2017-09-30T14:28:37.905Z,54.57
2017-09-30T14:31:06.227Z,42.83
2017-09-30T14:33:35.292Z,35.43
2017-09-30T14:36:03.618Z,36.40
2017-09-30T14:38:31.925Z,32.73
2017-09-30T14:41:00.277Z,31.27
2017-09-30T14:43:28.586Z,32.23
2017-09-30T14:45:56.894Z,27.47
2017-09-30T14:48:25.305Z,32.47
2017-09-30T14:50:53.619Z,28.23
2017-09-30T14:53:21.946Z,28.23
2017-09-30T14:55:51.031Z,33.73
2017-09-30T14:58:19.359Z,29.97
2017-09-30T15:00:47.681Z,28.83
2017-09-30T15:03:15.994Z,30.57
2017-09-30T15:05:44.297Z,31.53
2017-09-30T15:08:12.616Z,24.53
2017-09-30T15:10:40.941Z,28.80
2017-09-30T15:13:09.263Z,21.93
2017-09-30T15:15:37.585Z,21.17
2017-09-30T15:18:05.926Z,29.13
2017-09-30T15:20:34.264Z,20.20
2017-09-30T15:23:02.568Z,18.77
2017-09-30T15:25:30.897Z,22.30
2017-09-30T15:27:59.227Z,21.73
2017-09-30T15:30:27.559Z,19.50
2017-09-30T15:32:55.878Z,23.83
2017-09-30T15:35:24.199Z,18.47
2017-09-30T15:37:52.507Z,24.30
2017-09-30T15:40:20.850Z,22.60
2017-09-30T15:42:49.162Z,18.10
2017-09-30T15:45:17.475Z,17.97
2017-09-30T15:47:45.793Z,19.23
2017-09-30T15:50:14.105Z,19.53
2017-09-30T15:52:43.197Z,19.63
2017-09-30T15:55:11.520Z,19.13
2017-09-30T15:57:40.606Z,15.90
2017-09-30T16:00:09.898Z,15.83
2017-09-30T16:02:38.990Z,18.53
2017-09-30T16:05:07.330Z,19.23
2017-09-30T16:07:35.661Z,19.80
2017-09-30T16:10:03.982Z,20.67
2017-09-30T16:12:32.342Z,15.03
2017-09-30T16:15:00.673Z,16.50
2017-09-30T16:17:28.985Z,19.47
2017-09-30T16:19:58.058Z,22.83
2017-09-30T16:22:27.306Z,20.50
2017-09-30T16:24:55.626Z,31.67
2017-09-30T16:27:23.957Z,16.77
2017-09-30T16:29:52.267Z,23.80
2017-09-30T16:32:20.596Z,16.13
2017-09-30T16:34:48.988Z,17.20
2017-09-30T16:37:17.301Z,14.43
2017-09-30T16:39:45.623Z,20.97
2017-09-30T16:42:14.710Z,18.10
2017-09-30T16:44:43.814Z,17.83
2017-09-30T16:47:12.895Z,15.67
2017-09-30T16:49:41.969Z,22.33
2017-09-30T16:52:10.294Z,17.93
2017-09-30T16:54:38.612Z,15.67
2017-09-30T16:57:07.142Z,17.43
2017-09-30T16:59:36.242Z,20.13
2017-09-30T17:02:04.570Z,19.23
2017-09-30T17:04:32.870Z,16.77
2017-09-30T17:07:01.191Z,26.07
2017-09-30T17:09:29.502Z,21.93
2017-09-30T17:11:57.874Z,15.17
2017-09-30T17:14:26.181Z,14.77
2017-09-30T17:16:54.493Z,15.53
2017-09-30T17:19:22.850Z,15.40
2017-09-30T17:21:51.936Z,17.80
2017-09-30T17:24:25.978Z,22.67
2017-09-30T17:26:54.312Z,14.73
2017-09-30T17:29:22.621Z,23.83
2017-09-30T17:31:50.930Z,16.43
2017-09-30T17:34:19.250Z,14.60
2017-09-30T17:36:47.562Z,14.97
2017-09-30T17:39:15.888Z,17.43
2017-09-30T17:41:44.198Z,20.53
2017-09-30T17:44:13.319Z,21.80
2017-09-30T17:46:41.630Z,21.20
2017-09-30T17:49:09.947Z,17.40
2017-09-30T17:51:39.036Z,19.70
2017-09-30T17:54:08.110Z,13.83
2017-09-30T17:56:36.434Z,11.53
2017-09-30T17:59:04.743Z,23.33
2017-09-30T18:01:33.059Z,16.00
2017-09-30T18:04:02.138Z,15.43
2017-09-30T18:06:30.463Z,15.10
2017-09-30T18:08:58.778Z,12.27
2017-09-30T18:11:27.089Z,17.90
2017-09-30T18:13:56.183Z,21.87
2017-09-30T18:16:25.262Z,16.03
2017-09-30T18:18:53.595Z,17.53
2017-09-30T18:21:21.931Z,17.03
2017-09-30T18:23:51.024Z,17.27
2017-09-30T18:26:19.334Z,17.00
2017-09-30T18:28:47.669Z,19.13
2017-09-30T18:31:16.818Z,16.03
2017-09-30T18:33:45.133Z,13.97
2017-09-30T18:36:13.458Z,12.63
2017-09-30T18:38:41.767Z,18.83
2017-09-30T18:41:10.114Z,15.70
2017-09-30T18:43:38.421Z,15.83
2017-09-30T18:46:06.750Z,15.63
2017-09-30T18:48:35.848Z,15.10
2017-09-30T18:51:04.172Z,18.47
2017-09-30T18:53:32.515Z,15.10
2017-09-30T18:56:00.827Z,15.73
2017-09-30T18:58:29.182Z,16.63
2017-09-30T19:00:57.504Z,11.60
2017-09-30T19:03:25.829Z,16.87
2017-09-30T19:05:54.150Z,17.80
2017-09-30T19:08:22.479Z,20.40
2017-09-30T19:10:50.794Z,17.57
2017-09-30T19:13:19.117Z,14.03
2017-09-30T19:15:48.212Z,26.70
2017-09-30T19:18:17.327Z,14.57
2017-09-30T19:20:45.649Z,21.10
2017-09-30T19:23:13.957Z,12.60
2017-09-30T19:25:42.285Z,18.50
2017-09-30T19:28:10.608Z,14.60
2017-09-30T19:30:38.944Z,15.50
2017-09-30T19:33:07.254Z,18.43
2017-09-30T19:35:35.567Z,16.57
2017-09-30T19:38:04.662Z,12.80
2017-09-30T19:40:32.993Z,16.20
2017-09-30T19:43:01.352Z,13.87
2017-09-30T19:45:29.658Z,15.40
2017-09-30T19:47:58.002Z,13.13
2017-09-30T19:50:26.312Z,15.67
2017-09-30T19:52:54.633Z,19.30
2017-09-30T19:55:22.946Z,18.97
2017-09-30T19:57:51.265Z,21.83
2017-09-30T20:00:19.617Z,17.57
2017-09-30T20:02:47.939Z,18.70
2017-09-30T20:05:17.078Z,20.80
2017-09-30T20:07:45.390Z,17.30
2017-09-30T20:10:13.705Z,14.90
2017-09-30T20:12:42.020Z,16.90
2017-09-30T20:15:10.358Z,16.10
2017-09-30T20:17:39.523Z,17.07
2017-09-30T20:20:08.642Z,17.27
2017-09-30T20:22:36.962Z,17.50
2017-09-30T20:25:06.042Z,15.80
2017-09-30T20:27:34.364Z,28.73
2017-09-30T20:30:02.668Z,17.10
2017-09-30T20:32:31.006Z,19.10
2017-09-30T20:34:59.309Z,18.30
2017-09-30T20:37:28.400Z,20.27
2017-09-30T20:39:57.473Z,21.80
2017-09-30T20:42:25.798Z,18.93
2017-09-30T20:44:54.106Z,21.20
2017-09-30T20:47:22.435Z,18.00
2017-09-30T20:49:51.509Z,23.90
2017-09-30T20:52:19.870Z,31.30
2017-09-30T20:54:48.181Z,32.40
2017-09-30T20:57:17.259Z,32.50
2017-09-30T20:59:45.582Z,38.20
2017-09-30T21:02:13.905Z,33.97
2017-09-30T21:04:42.227Z,31.03
2017-09-30T21:07:10.551Z,34.63
2017-09-30T21:09:38.881Z,35.20
2017-09-30T21:12:07.949Z,37.13
2017-09-30T21:14:36.269Z,41.20
2017-09-30T21:17:04.582Z,36.77
2017-09-30T21:19:32.904Z,35.97
2017-09-30T21:22:01.226Z,40.30
2017-09-30T21:24:29.541Z,39.33
2017-09-30T21:26:58.618Z,39.20
2017-09-30T21:29:26.942Z,39.10
2017-09-30T21:31:55.249Z,37.83
2017-09-30T21:34:23.558Z,26.90
2017-09-30T21:36:51.874Z,18.40
2017-09-30T21:39:20.217Z,12.53
2017-09-30T21:41:49.297Z,12.30
2017-09-30T21:44:17.597Z,9.63
2017-09-30T21:46:46.683Z,9.30
2017-09-30T21:49:14.981Z,7.97
2017-09-30T21:51:43.300Z,8.77
2017-09-30T21:54:11.602Z,7.73
2017-09-30T21:56:39.915Z,5.57
2017-09-30T21:59:08.226Z,5.93
2017-09-30T22:01:36.541Z,5.57
2017-09-30T22:04:04.842Z,5.80
2017-09-30T22:06:33.161Z,4.77
2017-09-30T22:09:01.458Z,7.73
2017-09-30T22:11:29.801Z,6.77
2017-09-30T22:13:58.108Z,4.50
2017-09-30T22:16:26.418Z,4.67
2017-09-30T22:18:55.502Z,4.50
2017-09-30T22:21:23.807Z,8.90
2017-09-30T22:23:52.125Z,6.37
2017-09-30T22:26:20.433Z,5.70
2017-09-30T22:28:49.522Z,4.90
2017-09-30T22:31:17.833Z,4.40
2017-09-30T22:33:46.151Z,3.10
2017-09-30T22:36:14.453Z,4.27
2017-09-30T22:38:42.765Z,5.17
2017-09-30T22:41:11.071Z,6.00
2017-09-30T22:43:39.445Z,6.33
2017-09-30T22:46:07.747Z,6.00
2017-09-30T22:48:36.045Z,9.53
2017-09-30T22:51:04.352Z,6.40
2017-09-30T22:53:32.659Z,6.03
2017-09-30T22:56:00.979Z,7.10
2017-09-30T22:58:29.300Z,12.37
2017-09-30T23:00:58.429Z,10.20
2017-09-30T23:03:26.734Z,10.83
2017-09-30T23:05:55.851Z,11.50
2017-09-30T23:08:24.168Z,8.13
2017-09-30T23:10:52.466Z,9.00
2017-09-30T23:13:20.778Z,8.57
2017-09-30T23:15:49.098Z,8.40
2017-09-30T23:18:17.431Z,6.03
2017-09-30T23:20:46.489Z,5.17
2017-09-30T23:23:14.803Z,5.80
2017-09-30T23:25:43.867Z,6.37
2017-09-30T23:28:12.193Z,8.97
2017-09-30T23:30:40.507Z,4.60
2017-09-30T23:33:08.849Z,4.60
2017-09-30T23:35:37.148Z,6.30
2017-09-30T23:38:05.496Z,5.07
2017-09-30T23:40:33.799Z,5.03
2017-09-30T23:43:02.109Z,9.10
2017-09-30T23:45:30.420Z,6.10
2017-09-30T23:47:59.494Z,4.60
2017-09-30T23:50:27.804Z,3.97
2017-09-30T23:52:56.099Z,5.17
2017-09-30T23:55:24.422Z,5.80
2017-09-30T23:57:52.728Z,3.77
